Time;durP1;ratioP1;P1;durP2;ratioP2;P2;SDS_P1;SDS_P2;PMS_P1;PMS_P2;Temp;Humidity;BMP_temperature;BMP_pressure;BME280_temperature;BME280_humidity;BME280_pressure;Samples;Min_cycle;Max_cycle;Signal;HPM_P1;HPM_P2
2021/09/07 00:01:28;;;;;;;20.03;12.20;;;;;;;;;;5053489;28;20944;-68
2021/09/07 00:03:55;;;;;;;16.97;13.20;;;;;;;;;;5053190;28;20930;-68
2021/09/07 00:06:22;;;;;;;17.90;13.57;;;;;;;;;;5053778;28;20886;-68
2021/09/07 00:08:49;;;;;;;16.30;13.73;;;;;;;;;;5053650;28;20449;-69
2021/09/07 00:11:17;;;;;;;20.70;16.43;;;;;;;;;;5053970;28;20473;-69
2021/09/07 00:13:44;;;;;;;20.80;15.93;;;;;;;;;;5053654;28;20448;-69
2021/09/07 00:16:13;;;;;;;19.17;15.67;;;;;;;;;;5053641;28;20459;-69
2021/09/07 00:18:40;;;;;;;19.73;14.57;;;;;;;;;;5053314;28;20501;-68
2021/09/07 00:21:07;;;;;;;19.43;15.77;;;;;;;;;;5053489;28;20528;-69
2021/09/07 00:23:35;;;;;;;20.03;14.60;;;;;;;;;;5053182;28;20453;-69
2021/09/07 00:26:02;;;;;;;17.20;14.63;;;;;;;;;;5053505;28;20798;-69
2021/09/07 00:28:29;;;;;;;18.90;14.33;;;;;;;;;;5053404;28;20438;-69
2021/09/07 00:30:56;;;;;;;21.70;15.10;;;;;;;;;;5053335;28;20540;-68
2021/09/07 00:33:25;;;;;;;20.93;14.97;;;;;;;;;;5053445;28;20447;-68
2021/09/07 00:35:52;;;;;;;18.43;14.70;;;;;;;;;;5053350;28;20437;-68
2021/09/07 00:38:19;;;;;;;17.53;14.97;;;;;;;;;;5053022;28;21019;-68
2021/09/07 00:40:46;;;;;;;18.30;14.67;;;;;;;;;;5054051;28;20802;-68
2021/09/07 00:43:13;;;;;;;19.00;15.30;;;;;;;;;;5053312;28;20437;-68
2021/09/07 00:45:40;;;;;;;17.87;13.93;;;;;;;;;;5053279;28;20438;-68
2021/09/07 00:48:08;;;;;;;20.53;14.60;;;;;;;;;;5053056;28;20443;-69
2021/09/07 00:50:36;;;;;;;19.00;14.37;;;;;;;;;;5053197;28;20458;-68
2021/09/07 00:53:03;;;;;;;19.33;14.73;;;;;;;;;;5052793;28;20485;-69
2021/09/07 00:55:31;;;;;;;20.93;15.20;;;;;;;;;;5052838;28;20440;-69
2021/09/07 00:58:00;;;;;;;18.77;14.80;;;;;;;;;;5053179;28;20438;-68
2021/09/07 01:00:27;;;;;;;19.77;15.83;;;;;;;;;;5053529;28;20447;-69
2021/09/07 01:02:54;;;;;;;23.77;16.40;;;;;;;;;;5053124;28;20798;-68
2021/09/07 01:05:22;;;;;;;20.80;16.03;;;;;;;;;;5053061;28;20452;-68
2021/09/07 01:10:47;;;;;;;19.60;14.20;;;;;;;;;;5048703;28;20435;-68
2021/09/07 01:13:14;;;;;;;17.27;14.10;;;;;;;;;;5052929;28;20807;-69
2021/09/07 01:15:41;;;;;;;20.43;16.60;;;;;;;;;;5053680;28;20545;-68
2021/09/07 01:18:08;;;;;;;19.40;15.70;;;;;;;;;;5057005;28;20857;-69
2021/09/07 01:20:35;;;;;;;18.03;14.87;;;;;;;;;;5056453;28;20484;-68
2021/09/07 01:23:02;;;;;;;22.43;16.40;;;;;;;;;;5056685;28;20445;-69
2021/09/07 01:25:31;;;;;;;19.53;15.53;;;;;;;;;;5057285;28;20445;-68
2021/09/07 01:27:58;;;;;;;19.57;15.30;;;;;;;;;;5056716;28;20446;-68
2021/09/07 01:30:25;;;;;;;18.83;15.50;;;;;;;;;;5056179;28;20450;-68
2021/09/07 01:32:53;;;;;;;19.67;15.37;;;;;;;;;;5056529;28;20524;-68
2021/09/07 01:35:21;;;;;;;23.20;14.87;;;;;;;;;;5056508;28;20434;-68
2021/09/07 01:37:48;;;;;;;18.17;13.97;;;;;;;;;;5056890;28;20545;-68
2021/09/07 01:40:15;;;;;;;17.30;14.97;;;;;;;;;;5056679;28;20438;-68
2021/09/07 01:42:44;;;;;;;21.83;16.60;;;;;;;;;;5056346;28;20449;-68
2021/09/07 01:45:12;;;;;;;21.50;16.00;;;;;;;;;;5056330;28;20446;-68
2021/09/07 01:47:39;;;;;;;23.07;16.00;;;;;;;;;;5056268;28;20445;-68
2021/09/07 01:50:07;;;;;;;22.43;16.87;;;;;;;;;;5056267;28;20470;-68
2021/09/07 01:52:34;;;;;;;21.13;16.40;;;;;;;;;;5056085;28;20484;-68
2021/09/07 01:55:02;;;;;;;19.27;16.20;;;;;;;;;;5056501;28;20447;-68
2021/09/07 01:57:29;;;;;;;17.67;14.60;;;;;;;;;;5055838;28;20448;-68
2021/09/07 01:59:57;;;;;;;17.53;14.67;;;;;;;;;;5056194;28;20449;-69
2021/09/07 02:02:25;;;;;;;21.97;15.80;;;;;;;;;;5056150;28;20445;-68
2021/09/07 02:04:52;;;;;;;21.33;15.80;;;;;;;;;;5055703;28;20968;-68
2021/09/07 02:07:19;;;;;;;21.30;16.13;;;;;;;;;;5056239;28;20489;-68
2021/09/07 02:09:46;;;;;;;29.20;14.97;;;;;;;;;;5055899;28;20451;-68
2021/09/07 02:12:13;;;;;;;20.73;15.03;;;;;;;;;;5056095;28;20482;-68
2021/09/07 02:14:40;;;;;;;20.97;15.43;;;;;;;;;;5055791;28;20441;-68
2021/09/07 02:17:09;;;;;;;16.60;14.30;;;;;;;;;;5055791;28;20533;-68
2021/09/07 02:19:36;;;;;;;18.60;15.20;;;;;;;;;;5055944;28;20524;-68
2021/09/07 02:22:04;;;;;;;20.60;15.90;;;;;;;;;;5055805;28;20437;-68
2021/09/07 02:24:31;;;;;;;21.13;14.63;;;;;;;;;;5055614;28;20434;-68
2021/09/07 02:26:58;;;;;;;18.40;15.17;;;;;;;;;;5055898;28;20449;-68
2021/09/07 02:29:25;;;;;;;18.40;14.67;;;;;;;;;;5055556;28;20452;-68
2021/09/07 02:31:52;;;;;;;18.37;14.70;;;;;;;;;;5055566;28;20491;-68
2021/09/07 02:34:21;;;;;;;16.63;14.30;;;;;;;;;;5055893;28;20454;-68
2021/09/07 02:36:48;;;;;;;18.83;13.97;;;;;;;;;;5055060;28;20452;-68
2021/09/07 02:39:15;;;;;;;20.40;14.83;;;;;;;;;;5055048;28;20444;-68
2021/09/07 02:41:42;;;;;;;17.20;13.90;;;;;;;;;;5055402;28;20458;-68
2021/09/07 02:44:10;;;;;;;20.43;14.23;;;;;;;;;;5054929;28;20451;-68
2021/09/07 02:46:37;;;;;;;21.30;15.80;;;;;;;;;;5055241;28;20441;-68
2021/09/07 02:49:04;;;;;;;26.33;16.90;;;;;;;;;;5054994;28;20567;-68
2021/09/07 02:51:33;;;;;;;20.93;14.30;;;;;;;;;;5054748;28;20955;-68
2021/09/07 02:54:00;;;;;;;18.77;15.70;;;;;;;;;;5055302;28;20451;-68
2021/09/07 02:56:27;;;;;;;20.37;15.20;;;;;;;;;;5054664;28;20450;-69
2021/09/07 02:58:54;;;;;;;20.23;16.23;;;;;;;;;;5054578;28;20452;-69
2021/09/07 03:01:22;;;;;;;20.37;14.93;;;;;;;;;;5054921;28;20445;-69
2021/09/07 03:03:49;;;;;;;19.50;14.90;;;;;;;;;;5054509;28;20511;-69
2021/09/07 03:06:16;;;;;;;19.93;14.10;;;;;;;;;;5054866;28;20801;-69
2021/09/07 03:08:45;;;;;;;17.90;14.27;;;;;;;;;;5054802;28;20497;-69
2021/09/07 03:11:12;;;;;;;15.77;12.47;;;;;;;;;;5054819;28;20489;-69
2021/09/07 03:13:39;;;;;;;18.23;14.53;;;;;;;;;;5054607;28;20484;-69
2021/09/07 03:16:07;;;;;;;20.73;15.10;;;;;;;;;;5054678;28;20437;-69
2021/09/07 03:18:34;;;;;;;18.60;14.87;;;;;;;;;;5054677;28;20444;-69
2021/09/07 03:21:01;;;;;;;25.50;18.30;;;;;;;;;;5054746;28;20447;-69
2021/09/07 03:23:28;;;;;;;18.97;14.27;;;;;;;;;;5055329;28;20452;-69
2021/09/07 03:25:57;;;;;;;18.03;13.83;;;;;;;;;;5054512;28;20439;-69
2021/09/07 03:28:24;;;;;;;17.70;14.20;;;;;;;;;;5054018;28;20947;-69
2021/09/07 03:30:51;;;;;;;16.67;13.30;;;;;;;;;;5054290;28;20929;-69
2021/09/07 03:33:18;;;;;;;18.83;14.83;;;;;;;;;;5054523;28;20524;-68
2021/09/07 03:35:46;;;;;;;18.00;14.60;;;;;;;;;;5054825;28;20473;-68
2021/09/07 03:38:13;;;;;;;20.63;14.50;;;;;;;;;;5054163;28;20448;-68
2021/09/07 03:40:40;;;;;;;18.13;15.20;;;;;;;;;;5054539;28;20439;-69
2021/09/07 03:43:09;;;;;;;18.27;13.87;;;;;;;;;;5054309;28;20796;-68
2021/09/07 03:45:36;;;;;;;18.93;14.93;;;;;;;;;;5053821;28;20442;-68
2021/09/07 03:48:03;;;;;;;19.87;15.40;;;;;;;;;;5053933;28;20474;-68
2021/09/07 03:50:30;;;;;;;19.00;14.50;;;;;;;;;;5054347;28;20473;-69
2021/09/07 03:52:58;;;;;;;18.73;14.47;;;;;;;;;;5053919;28;20478;-69
2021/09/07 03:55:25;;;;;;;19.47;14.80;;;;;;;;;;5053870;28;20439;-69
2021/09/07 03:57:52;;;;;;;17.67;14.83;;;;;;;;;;5053552;28;20453;-69
2021/09/07 04:00:21;;;;;;;18.07;14.17;;;;;;;;;;5054033;28;20454;-69
2021/09/07 04:02:48;;;;;;;18.90;15.80;;;;;;;;;;5053731;28;20446;-68
2021/09/07 04:05:15;;;;;;;23.83;15.90;;;;;;;;;;5053420;28;20450;-69
2021/09/07 04:07:42;;;;;;;21.10;14.43;;;;;;;;;;5053820;28;20442;-69
2021/09/07 04:10:10;;;;;;;19.10;14.97;;;;;;;;;;5053666;28;20459;-69
2021/09/07 04:12:37;;;;;;;20.10;14.57;;;;;;;;;;5053269;28;20470;-68
2021/09/07 04:15:05;;;;;;;18.60;14.40;;;;;;;;;;5053579;28;20448;-69
2021/09/07 04:17:34;;;;;;;20.97;15.20;;;;;;;;;;5053200;28;20454;-69
2021/09/07 04:20:01;;;;;;;16.97;14.90;;;;;;;;;;5053530;28;20449;-68
2021/09/07 04:22:28;;;;;;;20.67;14.73;;;;;;;;;;5053645;28;20444;-69
2021/09/07 04:24:56;;;;;;;21.00;14.57;;;;;;;;;;5053236;28;20450;-69
2021/09/07 04:27:23;;;;;;;22.10;15.33;;;;;;;;;;5053864;28;20478;-69
2021/09/07 04:29:50;;;;;;;20.17;14.73;;;;;;;;;;5058099;28;20448;-69
2021/09/07 04:32:17;;;;;;;21.97;14.50;;;;;;;;;;5071794;28;20444;-69
2021/09/07 04:34:45;;;;;;;22.27;14.93;;;;;;;;;;5071964;28;20535;-68
2021/09/07 04:37:13;;;;;;;20.73;16.47;;;;;;;;;;5072460;28;20507;-69
2021/09/07 04:39:40;;;;;;;23.37;16.37;;;;;;;;;;5072529;28;20471;-69
2021/09/07 04:42:07;;;;;;;19.17;14.87;;;;;;;;;;5072508;28;20447;-69
2021/09/07 04:44:35;;;;;;;23.20;15.80;;;;;;;;;;5072832;28;20455;-69
2021/09/07 04:47:02;;;;;;;22.57;17.33;;;;;;;;;;5072204;28;20451;-69
2021/09/07 04:49:29;;;;;;;22.43;15.67;;;;;;;;;;5072017;28;20472;-69
2021/09/07 04:51:58;;;;;;;22.70;15.67;;;;;;;;;;5075358;28;20487;-68
2021/09/07 04:54:25;;;;;;;20.13;16.27;;;;;;;;;;5077130;28;20506;-69
2021/09/07 04:56:52;;;;;;;20.47;17.20;;;;;;;;;;5076503;28;20459;-68
2021/09/07 04:59:20;;;;;;;23.50;15.90;;;;;;;;;;5076075;28;20449;-69
2021/09/07 05:01:47;;;;;;;20.90;15.73;;;;;;;;;;5094569;28;20793;-69
2021/09/07 05:04:14;;;;;;;20.67;15.80;;;;;;;;;;5097287;28;20446;-69
2021/09/07 05:06:41;;;;;;;19.90;15.40;;;;;;;;;;5097210;28;20913;-69
2021/09/07 05:09:10;;;;;;;25.23;17.77;;;;;;;;;;5097570;28;20439;-69
2021/09/07 05:11:37;;;;;;;20.30;15.80;;;;;;;;;;5096900;28;20472;-69
2021/09/07 05:14:06;;;;;;;23.63;17.77;;;;;;;;;;5096759;28;20475;-70
2021/09/07 05:16:33;;;;;;;29.63;16.13;;;;;;;;;;5096839;28;20452;-69
2021/09/07 05:19:09;;;;;;;20.00;16.30;;;;;;;;;;5098029;28;20952;-69
2021/09/07 05:21:36;;;;;;;20.20;16.40;;;;;;;;;;5096919;28;20433;-65
2021/09/07 05:24:04;;;;;;;19.87;16.77;;;;;;;;;;5096849;28;20498;-69
2021/09/07 05:26:33;;;;;;;18.30;15.77;;;;;;;;;;5096773;28;20438;-68
2021/09/07 05:29:01;;;;;;;25.40;16.80;;;;;;;;;;5097074;28;20450;-68
2021/09/07 05:31:28;;;;;;;25.10;16.63;;;;;;;;;;5096941;28;20448;-69
2021/09/07 05:34:00;;;;;;;25.90;16.50;;;;;;;;;;5097239;28;20475;-69
2021/09/07 05:36:27;;;;;;;21.53;16.13;;;;;;;;;;5097402;28;20508;-69
2021/09/07 05:38:55;;;;;;;21.57;17.10;;;;;;;;;;5096761;28;20444;-70
2021/09/07 05:41:22;;;;;;;23.43;16.53;;;;;;;;;;5097174;28;20448;-70
2021/09/07 05:43:50;;;;;;;25.03;15.30;;;;;;;;;;5097325;28;20447;-70
2021/09/07 05:46:32;;;;;;;21.60;16.87;;;;;;;;;;5096768;28;20428;-70
2021/09/07 05:48:59;;;;;;;273.17;157.07;;;;;;;;;;5096353;28;20465;-71
2021/09/07 05:51:26;;;;;;;26.30;17.83;;;;;;;;;;5096452;28;20425;-70
2021/09/07 05:53:53;;;;;;;21.47;15.13;;;;;;;;;;5096321;28;20477;-70
2021/09/07 05:56:21;;;;;;;24.37;16.33;;;;;;;;;;5096109;28;20973;-70
2021/09/07 05:58:48;;;;;;;22.63;14.80;;;;;;;;;;5096457;28;20488;-70
2021/09/07 06:01:16;;;;;;;22.90;15.93;;;;;;;;;;5095552;28;20450;-70
2021/09/07 06:03:44;;;;;;;22.70;18.33;;;;;;;;;;5096187;28;20776;-70
2021/09/07 06:06:11;;;;;;;24.73;17.27;;;;;;;;;;5096244;28;20447;-70
2021/09/07 06:08:38;;;;;;;27.43;18.70;;;;;;;;;;5096208;28;20447;-70
2021/09/07 06:11:06;;;;;;;24.93;19.00;;;;;;;;;;5096249;28;20438;-70
2021/09/07 06:13:34;;;;;;;27.07;16.90;;;;;;;;;;5095974;28;20478;-70
2021/09/07 06:16:01;;;;;;;24.93;16.73;;;;;;;;;;5096426;28;20449;-70
2021/09/07 06:18:29;;;;;;;29.67;19.40;;;;;;;;;;5096354;28;20439;-71
2021/09/07 06:20:57;;;;;;;23.97;14.93;;;;;;;;;;5096184;28;20438;-70
2021/09/07 06:23:24;;;;;;;23.40;16.20;;;;;;;;;;5096147;28;20454;-70
2021/09/07 06:25:51;;;;;;;25.87;16.83;;;;;;;;;;5095833;28;20446;-70
2021/09/07 06:28:18;;;;;;;24.87;14.67;;;;;;;;;;5095676;28;20437;-70
2021/09/07 06:30:46;;;;;;;23.13;15.60;;;;;;;;;;5095774;28;20520;-70
2021/09/07 06:33:13;;;;;;;33.13;17.80;;;;;;;;;;5095254;28;20541;-69
2021/09/07 06:35:41;;;;;;;20.30;14.93;;;;;;;;;;5095351;28;20985;-70
2021/09/07 06:38:09;;;;;;;19.53;15.27;;;;;;;;;;5095593;28;20440;-69
2021/09/07 06:40:36;;;;;;;21.60;15.30;;;;;;;;;;5095466;28;20446;-70
2021/09/07 06:43:04;;;;;;;37.50;15.77;;;;;;;;;;5095550;28;20447;-70
2021/09/07 06:45:31;;;;;;;16.27;13.93;;;;;;;;;;5095426;28;20812;-71
2021/09/07 06:47:58;;;;;;;18.63;14.60;;;;;;;;;;5095592;28;20516;-70
2021/09/07 06:50:45;;;;;;;31.37;19.90;;;;;;;;;;5095696;28;20468;-70
2021/09/07 06:53:14;;;;;;;24.77;14.10;;;;;;;;;;5094919;28;20464;-71
2021/09/07 06:55:41;;;;;;;15.33;13.03;;;;;;;;;;5094942;28;20930;-70
2021/09/07 06:58:08;;;;;;;20.87;14.83;;;;;;;;;;5095154;28;20444;-70
2021/09/07 07:00:35;;;;;;;16.53;12.83;;;;;;;;;;5094705;28;20488;-71
2021/09/07 07:03:03;;;;;;;20.87;13.37;;;;;;;;;;5094804;28;20449;-71
2021/09/07 07:05:30;;;;;;;21.03;14.10;;;;;;;;;;5095536;28;20762;-70
2021/09/07 07:07:57;;;;;;;19.40;14.87;;;;;;;;;;5095115;28;20464;-70
2021/09/07 07:10:26;;;;;;;20.83;13.23;;;;;;;;;;5094759;28;20907;-70
2021/09/07 07:12:53;;;;;;;17.33;14.10;;;;;;;;;;5094603;28;20788;-70
2021/09/07 07:15:20;;;;;;;17.67;14.20;;;;;;;;;;5094655;28;20493;-70
2021/09/07 07:17:47;;;;;;;21.97;14.10;;;;;;;;;;5094493;28;21040;-69
2021/09/07 07:20:15;;;;;;;21.57;14.97;;;;;;;;;;5094558;28;20481;-69
2021/09/07 07:22:42;;;;;;;25.47;15.50;;;;;;;;;;5094517;28;20494;-69
2021/09/07 07:25:10;;;;;;;23.00;15.10;;;;;;;;;;5094271;28;20444;-69
2021/09/07 07:27:41;;;;;;;27.60;16.30;;;;;;;;;;5094689;28;20444;-69
2021/09/07 07:30:09;;;;;;;21.97;15.33;;;;;;;;;;5095529;28;20543;-69
2021/09/07 07:32:36;;;;;;;23.53;16.40;;;;;;;;;;5094550;28;20441;-69
2021/09/07 07:35:04;;;;;;;20.33;15.93;;;;;;;;;;5094403;28;20483;-69
2021/09/07 07:37:31;;;;;;;26.83;16.63;;;;;;;;;;5094387;28;20448;-69
2021/09/07 07:39:58;;;;;;;18.87;15.23;;;;;;;;;;5094902;28;20429;-69
2021/09/07 07:42:25;;;;;;;28.37;16.10;;;;;;;;;;5094812;28;20451;-70
2021/09/07 07:44:54;;;;;;;21.87;16.10;;;;;;;;;;5093910;28;20455;-69
2021/09/07 07:47:21;;;;;;;19.70;15.93;;;;;;;;;;5094222;28;20441;-70
2021/09/07 07:49:48;;;;;;;25.83;16.63;;;;;;;;;;5094168;28;20464;-70
2021/09/07 07:52:16;;;;;;;20.00;14.83;;;;;;;;;;5094403;28;20540;-71
2021/09/07 07:54:44;;;;;;;19.00;15.97;;;;;;;;;;5094006;28;20475;-70
2021/09/07 07:57:11;;;;;;;19.00;16.23;;;;;;;;;;5094170;28;20537;-70
2021/09/07 07:59:39;;;;;;;18.77;15.43;;;;;;;;;;5094352;28;20447;-71
2021/09/07 08:02:07;;;;;;;21.53;15.97;;;;;;;;;;5093984;28;20442;-68
2021/09/07 08:04:35;;;;;;;24.97;15.27;;;;;;;;;;5093858;28;20948;-68
2021/09/07 08:07:02;;;;;;;20.23;16.30;;;;;;;;;;5094201;28;20764;-68
2021/09/07 08:09:31;;;;;;;22.10;16.50;;;;;;;;;;5093861;28;20525;-68
2021/09/07 08:11:58;;;;;;;23.07;15.70;;;;;;;;;;5093841;28;20871;-69
2021/09/07 08:14:25;;;;;;;26.73;15.83;;;;;;;;;;5093711;28;20472;-70
2021/09/07 08:16:53;;;;;;;22.83;17.00;;;;;;;;;;5093832;28;20528;-69
2021/09/07 08:19:21;;;;;;;21.30;16.53;;;;;;;;;;5093781;28;20515;-69
2021/09/07 08:21:48;;;;;;;21.07;16.23;;;;;;;;;;5093351;28;20537;-69
2021/09/07 08:24:16;;;;;;;22.50;15.30;;;;;;;;;;5093055;28;20443;-68
2021/09/07 08:26:43;;;;;;;24.00;15.97;;;;;;;;;;5094266;28;20450;-68
2021/09/07 08:29:10;;;;;;;20.73;14.70;;;;;;;;;;5093574;28;21020;-68
2021/09/07 08:31:38;;;;;;;20.43;14.50;;;;;;;;;;5093491;28;20457;-69
2021/09/07 08:34:05;;;;;;;23.40;15.27;;;;;;;;;;5093098;28;20484;-69
2021/09/07 08:36:33;;;;;;;19.03;15.13;;;;;;;;;;5093706;28;20619;-68
2021/09/07 08:39:01;;;;;;;22.77;13.97;;;;;;;;;;5093080;28;20448;-69
2021/09/07 08:41:28;;;;;;;20.83;14.90;;;;;;;;;;5094201;28;20496;-69
2021/09/07 08:43:55;;;;;;;18.90;15.47;;;;;;;;;;5093358;28;20446;-69
2021/09/07 08:46:22;;;;;;;19.17;14.83;;;;;;;;;;5093368;28;20446;-69
2021/09/07 08:48:49;;;;;;;21.60;15.20;;;;;;;;;;5093582;28;20472;-69
2021/09/07 08:51:17;;;;;;;16.80;13.37;;;;;;;;;;5093244;28;20441;-69
2021/09/07 08:53:46;;;;;;;18.77;14.47;;;;;;;;;;5093748;28;20449;-69
2021/09/07 08:56:14;;;;;;;21.73;14.27;;;;;;;;;;5093357;28;20444;-69
2021/09/07 08:58:41;;;;;;;20.33;14.83;;;;;;;;;;5093293;28;20538;-68
2021/09/07 09:01:15;;;;;;;19.37;14.70;;;;;;;;;;5092861;28;20451;-69
2021/09/07 09:03:43;;;;;;;16.23;13.77;;;;;;;;;;5092843;28;20446;-68
2021/09/07 09:06:10;;;;;;;22.13;14.60;;;;;;;;;;5093157;28;20955;-69
2021/09/07 09:08:38;;;;;;;15.73;13.63;;;;;;;;;;5093083;28;20533;-68
2021/09/07 09:11:07;;;;;;;19.07;15.03;;;;;;;;;;5093101;28;20441;-68
2021/09/07 09:13:44;;;;;;;15.60;13.90;;;;;;;;;;5092794;28;20441;-69
2021/09/07 09:16:12;;;;;;;22.37;14.30;;;;;;;;;;5093135;28;20493;-69
2021/09/07 09:18:40;;;;;;;30.90;19.37;;;;;;;;;;5093343;28;20442;-69
2021/09/07 09:21:23;;;;;;;21.33;14.63;;;;;;;;;;5093082;28;20806;-70
2021/09/07 09:24:05;;;;;;;20.47;15.63;;;;;;;;;;5092806;28;20926;-71
2021/09/07 09:26:33;;;;;;;32.20;13.87;;;;;;;;;;5092841;28;20524;-71
2021/09/07 09:29:06;;;;;;;17.83;13.20;;;;;;;;;;5092867;28;20916;-71
2021/09/07 09:31:48;;;;;;;24.43;12.87;;;;;;;;;;5093640;28;20897;-71
2021/09/07 09:34:15;;;;;;;15.87;12.47;;;;;;;;;;5092934;28;20498;-70
2021/09/07 09:36:47;;;;;;;16.80;13.47;;;;;;;;;;5093462;28;20448;-71
2021/09/07 09:39:34;;;;;;;24.77;14.10;;;;;;;;;;5097384;28;20483;-71
2021/09/07 09:42:03;;;;;;;14.07;11.43;;;;;;;;;;5096448;28;20487;-70
2021/09/07 09:44:30;;;;;;;17.43;12.83;;;;;;;;;;5096738;28;20448;-70
2021/09/07 09:46:57;;;;;;;20.10;12.70;;;;;;;;;;5096587;28;20537;-70
2021/09/07 09:49:26;;;;;;;18.77;13.33;;;;;;;;;;5096902;28;20557;-70
2021/09/07 09:51:57;;;;;;;18.60;13.10;;;;;;;;;;5096507;28;20440;-71
2021/09/07 09:54:24;;;;;;;12.90;11.33;;;;;;;;;;5096116;28;20473;-70
2021/09/07 09:56:52;;;;;;;15.53;12.63;;;;;;;;;;5096592;28;20533;-70
2021/09/07 09:59:22;;;;;;;14.00;12.50;;;;;;;;;;5096292;28;20443;-71
2021/09/07 10:01:50;;;;;;;16.00;12.57;;;;;;;;;;5096417;28;20457;-70
2021/09/07 10:04:17;;;;;;;17.23;13.63;;;;;;;;;;5096559;28;20474;-69
2021/09/07 10:06:50;;;;;;;14.80;11.10;;;;;;;;;;5096149;28;20452;-70
2021/09/07 10:09:17;;;;;;;16.13;11.13;;;;;;;;;;5096745;28;20430;-69
2021/09/07 10:11:46;;;;;;;15.90;10.33;;;;;;;;;;5096135;28;20814;-69
2021/09/07 10:14:16;;;;;;;20.73;10.00;;;;;;;;;;5095910;28;20445;-68
2021/09/07 10:16:52;;;;;;;13.47;9.90;;;;;;;;;;5096084;28;20435;-68
2021/09/07 10:19:36;;;;;;;13.30;11.17;;;;;;;;;;5096453;28;20430;-68
2021/09/07 10:24:58;;;;;;;15.50;10.23;;;;;;;;;;5095805;28;20407;-68
2021/09/07 10:27:40;;;;;;;14.77;10.57;;;;;;;;;;5095435;28;20459;-68
2021/09/07 10:30:07;;;;;;;16.33;13.00;;;;;;;;;;5095104;28;20813;-68
2021/09/07 10:32:36;;;;;;;15.07;11.90;;;;;;;;;;5095682;28;20922;-68
2021/09/07 10:35:24;;;;;;;30.50;12.07;;;;;;;;;;5095184;28;20510;-68
2021/09/07 10:38:08;;;;;;;17.03;10.67;;;;;;;;;;5089306;28;20455;-69
2021/09/07 10:40:42;;;;;;;17.57;12.97;;;;;;;;;;5095687;28;20534;-68
2021/09/07 10:43:09;;;;;;;14.47;10.80;;;;;;;;;;5095422;28;20798;-68
2021/09/07 10:45:37;;;;;;;20.20;11.17;;;;;;;;;;5094797;28;21021;-69
2021/09/07 10:48:19;;;;;;;16.63;11.20;;;;;;;;;;5095253;28;20446;-68
2021/09/07 10:51:00;;;;;;;15.30;10.27;;;;;;;;;;5094899;28;20443;-68
2021/09/07 10:53:27;;;;;;;11.67;10.07;;;;;;;;;;5095435;28;20511;-70
2021/09/07 10:55:54;;;;;;;13.63;10.97;;;;;;;;;;5094864;28;20564;-68
2021/09/07 10:58:34;;;;;;;15.63;13.00;;;;;;;;;;5094549;28;20440;-68
2021/09/07 11:01:20;;;;;;;21.17;10.50;;;;;;;;;;5094897;28;20438;-70
2021/09/07 11:03:47;;;;;;;12.53;11.13;;;;;;;;;;5094927;28;20523;-70
2021/09/07 11:06:29;;;;;;;12.00;10.70;;;;;;;;;;5094593;28;20530;-70
2021/09/07 11:08:58;;;;;;;20.23;11.40;;;;;;;;;;5094817;28;20494;-69
2021/09/07 11:11:27;;;;;;;15.10;10.87;;;;;;;;;;5095468;28;20444;-68
2021/09/07 11:14:07;;;;;;;15.80;11.33;;;;;;;;;;5094581;28;20932;-69
2021/09/07 11:16:35;;;;;;;15.17;11.40;;;;;;;;;;5095262;28;20471;-68
2021/09/07 11:19:02;;;;;;;12.77;10.50;;;;;;;;;;5094750;28;20458;-68
2021/09/07 11:21:30;;;;;;;13.20;10.93;;;;;;;;;;5094354;28;20447;-69
2021/09/07 11:24:01;;;;;;;19.90;11.30;;;;;;;;;;5095025;28;20512;-69
2021/09/07 11:26:29;;;;;;;13.63;10.90;;;;;;;;;;5095495;28;20522;-69
2021/09/07 11:28:56;;;;;;;17.80;11.73;;;;;;;;;;5094719;28;20462;-68
2021/09/07 11:31:23;;;;;;;17.87;13.10;;;;;;;;;;5095086;28;20440;-69
2021/09/07 11:33:52;;;;;;;21.33;11.97;;;;;;;;;;5094000;28;20435;-68
2021/09/07 11:36:19;;;;;;;15.83;10.47;;;;;;;;;;5095232;28;20835;-69
2021/09/07 11:38:48;;;;;;;14.20;11.70;;;;;;;;;;5094182;28;20436;-69
2021/09/07 11:41:17;;;;;;;22.73;10.93;;;;;;;;;;5094420;28;20439;-69
2021/09/07 11:43:45;;;;;;;14.10;11.90;;;;;;;;;;5093884;28;20454;-70
2021/09/07 11:46:13;;;;;;;14.60;11.43;;;;;;;;;;5094238;28;20448;-69
2021/09/07 11:48:41;;;;;;;18.50;12.90;;;;;;;;;;5094283;28;20818;-69
2021/09/07 11:51:09;;;;;;;14.33;11.30;;;;;;;;;;5094184;28;20446;-69
2021/09/07 11:53:37;;;;;;;15.77;9.93;;;;;;;;;;5094136;28;20434;-68
2021/09/07 11:56:04;;;;;;;19.13;12.87;;;;;;;;;;5093687;28;20577;-68
2021/09/07 11:58:38;;;;;;;16.50;12.47;;;;;;;;;;5093633;28;20471;-68
2021/09/07 12:01:07;;;;;;;13.80;10.90;;;;;;;;;;5093661;28;20430;-68
2021/09/07 12:03:35;;;;;;;21.70;10.70;;;;;;;;;;5094036;28;20443;-69
2021/09/07 12:06:03;;;;;;;14.30;9.93;;;;;;;;;;5093675;28;20475;-68
2021/09/07 12:08:35;;;;;;;12.87;10.47;;;;;;;;;;5093615;28;20443;-68
2021/09/07 12:11:02;;;;;;;18.43;11.03;;;;;;;;;;5093560;28;20532;-68
2021/09/07 12:13:30;;;;;;;12.77;10.57;;;;;;;;;;5093786;28;20439;-69
2021/09/07 12:16:05;;;;;;;11.70;9.00;;;;;;;;;;5093461;28;21042;-68
2021/09/07 12:18:34;;;;;;;21.53;12.43;;;;;;;;;;5094374;28;20782;-68
2021/09/07 12:21:22;;;;;;;16.20;12.00;;;;;;;;;;5093990;28;20443;-69
2021/09/07 12:23:49;;;;;;;13.03;11.33;;;;;;;;;;5093262;28;20434;-68
2021/09/07 12:26:17;;;;;;;13.53;11.30;;;;;;;;;;5094085;28;20942;-69
2021/09/07 12:28:45;;;;;;;14.57;11.10;;;;;;;;;;5093171;28;20475;-68
2021/09/07 12:31:18;;;;;;;12.70;10.70;;;;;;;;;;5093396;28;20497;-68
2021/09/07 12:33:48;;;;;;;10.57;9.47;;;;;;;;;;5093281;28;20937;-69
2021/09/07 12:36:16;;;;;;;16.77;11.43;;;;;;;;;;5093179;28;20460;-69
2021/09/07 12:38:43;;;;;;;12.63;10.70;;;;;;;;;;5093211;28;20445;-68
2021/09/07 12:41:11;;;;;;;15.20;9.77;;;;;;;;;;5093655;28;20453;-69
2021/09/07 12:43:41;;;;;;;15.37;11.30;;;;;;;;;;5092882;28;20497;-67
2021/09/07 12:46:09;;;;;;;20.80;11.30;;;;;;;;;;5093155;28;21019;-64
2021/09/07 12:48:38;;;;;;;12.87;10.40;;;;;;;;;;5093824;28;20471;-66
2021/09/07 12:51:08;;;;;;;14.90;10.63;;;;;;;;;;5093019;28;20947;-67
2021/09/07 12:53:40;;;;;;;11.10;9.10;;;;;;;;;;5093431;28;20533;-67
2021/09/07 12:56:08;;;;;;;12.47;10.23;;;;;;;;;;5093355;28;20480;-67
2021/09/07 12:58:36;;;;;;;12.10;8.93;;;;;;;;;;5093199;28;20908;-67
2021/09/07 13:01:06;;;;;;;12.63;11.00;;;;;;;;;;5092936;28;20484;-67
2021/09/07 13:03:33;;;;;;;12.80;9.77;;;;;;;;;;5092890;28;20945;-68
2021/09/07 13:06:02;;;;;;;16.30;11.20;;;;;;;;;;5092135;28;20798;-68
2021/09/07 13:08:29;;;;;;;11.63;9.40;;;;;;;;;;5092124;28;20455;-68
2021/09/07 13:10:56;;;;;;;41.47;12.00;;;;;;;;;;5092926;28;20538;-68
2021/09/07 13:13:24;;;;;;;30.57;12.43;;;;;;;;;;5095994;28;20547;-68
2021/09/07 13:15:51;;;;;;;22.07;12.30;;;;;;;;;;5096329;28;21008;-68
2021/09/07 13:18:18;;;;;;;23.70;11.63;;;;;;;;;;5095901;28;20949;-68
2021/09/07 13:20:45;;;;;;;31.77;12.10;;;;;;;;;;5096446;28;20447;-68
2021/09/07 13:23:14;;;;;;;20.33;10.90;;;;;;;;;;5096454;28;20444;-68
2021/09/07 13:25:41;;;;;;;30.07;10.57;;;;;;;;;;5095922;28;20485;-68
2021/09/07 13:28:09;;;;;;;13.17;11.57;;;;;;;;;;5096454;28;20896;-68
2021/09/07 13:30:37;;;;;;;11.73;9.97;;;;;;;;;;5096161;28;20448;-68
2021/09/07 13:33:04;;;;;;;10.37;9.23;;;;;;;;;;5095944;28;20536;-68
2021/09/07 13:35:31;;;;;;;11.27;9.70;;;;;;;;;;5095339;28;20780;-68
2021/09/07 13:37:58;;;;;;;15.90;10.10;;;;;;;;;;5075747;28;20454;-68
2021/09/07 13:40:27;;;;;;;27.20;10.33;;;;;;;;;;5076131;28;20523;-68
2021/09/07 13:42:54;;;;;;;11.87;8.93;;;;;;;;;;5075986;28;20442;-68
2021/09/07 13:45:22;;;;;;;31.13;11.90;;;;;;;;;;5075952;28;20497;-70
2021/09/07 13:47:49;;;;;;;30.40;16.40;;;;;;;;;;5075995;28;20442;-68
2021/09/07 13:50:16;;;;;;;33.57;11.30;;;;;;;;;;5076888;28;20468;-68
2021/09/07 13:52:44;;;;;;;17.07;10.00;;;;;;;;;;5076166;28;20448;-68
2021/09/07 13:55:12;;;;;;;12.30;10.00;;;;;;;;;;5075602;28;20474;-68
2021/09/07 13:57:41;;;;;;;10.00;9.00;;;;;;;;;;5075635;28;20948;-69
2021/09/07 14:00:10;;;;;;;13.73;11.27;;;;;;;;;;5075676;28;20452;-70
2021/09/07 14:02:40;;;;;;;15.00;9.83;;;;;;;;;;5073983;28;20455;-69
2021/09/07 14:05:08;;;;;;;10.93;9.47;;;;;;;;;;5075523;28;20426;-69
2021/09/07 14:07:35;;;;;;;13.63;9.67;;;;;;;;;;5075211;28;20452;-69
2021/09/07 14:10:02;;;;;;;19.03;14.57;;;;;;;;;;5074835;28;20525;-70
2021/09/07 14:12:30;;;;;;;13.60;10.40;;;;;;;;;;5074353;28;20440;-70
2021/09/07 14:14:59;;;;;;;15.20;10.90;;;;;;;;;;5074606;28;20465;-70
2021/09/07 14:17:26;;;;;;;10.80;9.10;;;;;;;;;;5074021;28;20577;-70
2021/09/07 14:19:53;;;;;;;10.17;9.17;;;;;;;;;;5074630;28;20424;-70
2021/09/07 14:22:22;;;;;;;12.13;9.77;;;;;;;;;;5074224;28;20427;-70
2021/09/07 14:24:49;;;;;;;9.83;8.80;;;;;;;;;;5074528;28;20443;-70
2021/09/07 14:27:16;;;;;;;10.90;9.30;;;;;;;;;;5074508;28;20477;-70
2021/09/07 14:29:43;;;;;;;11.53;9.50;;;;;;;;;;5074254;28;20460;-70
2021/09/07 14:32:13;;;;;;;15.83;14.13;;;;;;;;;;5073425;28;20803;-70